sensor_id;sensor_type;location;lat;lon;timestamp;pressure;altitude;pressure_sealevel;temperature;humidity
21290;BME280;10804;48.988;2.408;2022-09-09T00:00:33;100232.38;;;22.06;54.34
21290;BME280;10804;48.988;2.408;2022-09-09T00:03:08;100238.66;;;22.05;54.33
21290;BME280;10804;48.988;2.408;2022-09-09T00:05:44;100229.22;;;22.01;54.29
21290;BME280;10804;48.988;2.408;2022-09-09T00:08:20;100231.88;;;22.01;54.51
21290;BME280;10804;48.988;2.408;2022-09-09T00:10:54;100234.53;;;22.01;54.42
21290;BME280;10804;48.988;2.408;2022-09-09T00:13:30;100235.66;;;21.98;54.57
21290;BME280;10804;48.988;2.408;2022-09-09T00:16:08;100233.81;;;21.99;54.35
21290;BME280;10804;48.988;2.408;2022-09-09T00:18:50;100230.56;;;21.95;54.49
21290;BME280;10804;48.988;2.408;2022-09-09T00:21:22;100231.53;;;21.94;54.42
21290;BME280;10804;48.988;2.408;2022-09-09T00:23:54;100223.81;;;21.91;54.56
21290;BME280;10804;48.988;2.408;2022-09-09T00:26:30;100240.47;;;21.93;54.54
21290;BME280;10804;48.988;2.408;2022-09-09T00:29:04;100232.72;;;21.90;54.34
21290;BME280;10804;48.988;2.408;2022-09-09T00:31:33;100229.84;;;21.93;54.47
21290;BME280;10804;48.988;2.408;2022-09-09T00:34:05;100233.47;;;21.92;54.14
21290;BME280;10804;48.988;2.408;2022-09-09T00:36:38;100232.00;;;21.88;54.51
21290;BME280;10804;48.988;2.408;2022-09-09T00:39:12;100225.72;;;21.89;54.41
21290;BME280;10804;48.988;2.408;2022-09-09T00:41:50;100235.75;;;21.86;54.21
21290;BME280;10804;48.988;2.408;2022-09-09T00:44:30;100227.78;;;21.86;54.53
21290;BME280;10804;48.988;2.408;2022-09-09T00:47:21;100227.19;;;21.82;54.41
21290;BME280;10804;48.988;2.408;2022-09-09T00:50:00;100224.41;;;21.84;54.45
21290;BME280;10804;48.988;2.408;2022-09-09T00:52:36;100228.41;;;21.78;54.56
21290;BME280;10804;48.988;2.408;2022-09-09T00:55:16;100215.84;;;21.80;54.37
21290;BME280;10804;48.988;2.408;2022-09-09T00:57:46;100215.03;;;21.80;54.51
21290;BME280;10804;48.988;2.408;2022-09-09T01:00:23;100217.53;;;21.81;54.37
21290;BME280;10804;48.988;2.408;2022-09-09T01:05:39;100215.13;;;21.78;54.38
21290;BME280;10804;48.988;2.408;2022-09-09T01:08:19;100214.44;;;21.76;54.42
21290;BME280;10804;48.988;2.408;2022-09-09T01:10:53;100214.66;;;21.73;54.49
21290;BME280;10804;48.988;2.408;2022-09-09T01:13:28;100218.16;;;21.74;54.47
21290;BME280;10804;48.988;2.408;2022-09-09T01:16:00;100215.63;;;21.72;54.39
21290;BME280;10804;48.988;2.408;2022-09-09T01:18:32;100215.63;;;21.72;54.61
21290;BME280;10804;48.988;2.408;2022-09-09T01:21:04;100207.78;;;21.71;54.59
21290;BME280;10804;48.988;2.408;2022-09-09T01:23:45;100208.75;;;21.70;54.55
21290;BME280;10804;48.988;2.408;2022-09-09T01:26:34;100209.72;;;21.69;54.43
21290;BME280;10804;48.988;2.408;2022-09-09T01:29:08;100209.81;;;21.67;54.62
21290;BME280;10804;48.988;2.408;2022-09-09T01:31:41;100201.03;;;21.67;54.61
21290;BME280;10804;48.988;2.408;2022-09-09T01:34:11;100213.44;;;21.66;54.39
21290;BME280;10804;48.988;2.408;2022-09-09T01:36:43;100198.50;;;21.65;54.51
21290;BME280;10804;48.988;2.408;2022-09-09T01:39:12;100201.25;;;21.64;54.51
21290;BME280;10804;48.988;2.408;2022-09-09T01:41:42;100206.56;;;21.64;54.49
21290;BME280;10804;48.988;2.408;2022-09-09T01:44:13;100204.84;;;21.63;54.67
21290;BME280;10804;48.988;2.408;2022-09-09T01:46:44;100204.03;;;21.62;54.47
21290;BME280;10804;48.988;2.408;2022-09-09T01:49:20;100203.31;;;21.60;54.64
21290;BME280;10804;48.988;2.408;2022-09-09T01:51:50;100203.31;;;21.60;54.55
21290;BME280;10804;48.988;2.408;2022-09-09T01:54:25;100205.97;;;21.60;54.47
21290;BME280;10804;48.988;2.408;2022-09-09T01:57:05;100195.56;;;21.57;54.49
21290;BME280;10804;48.988;2.408;2022-09-09T01:59:45;100200.16;;;21.55;54.63
21290;BME280;10804;48.988;2.408;2022-09-09T02:02:18;100202.56;;;21.58;54.65
21290;BME280;10804;48.988;2.408;2022-09-09T02:05:28;100193.88;;;21.56;54.52
21290;BME280;10804;48.988;2.408;2022-09-09T02:08:03;100192.19;;;21.55;54.40
21290;BME280;10804;48.988;2.408;2022-09-09T02:10:45;100183.53;;;21.53;54.79
21290;BME280;10804;48.988;2.408;2022-09-09T02:13:29;100183.53;;;21.53;54.57
21290;BME280;10804;48.988;2.408;2022-09-09T02:16:01;100187.16;;;21.52;54.47
21290;BME280;10804;48.988;2.408;2022-09-09T02:18:35;100182.66;;;21.53;54.55
21290;BME280;10804;48.988;2.408;2022-09-09T02:21:07;100177.47;;;21.51;54.74
21290;BME280;10804;48.988;2.408;2022-09-09T02:23:37;100174.00;;;21.51;54.45
21290;BME280;10804;48.988;2.408;2022-09-09T02:26:10;100172.31;;;21.50;54.46
21290;BME280;10804;48.988;2.408;2022-09-09T02:28:43;100182.06;;;21.49;54.54
21290;BME280;10804;48.988;2.408;2022-09-09T02:31:11;100182.91;;;21.50;54.59
21290;BME280;10804;48.988;2.408;2022-09-09T02:33:45;100189.31;;;21.47;54.52
21290;BME280;10804;48.988;2.408;2022-09-09T02:36:14;100188.34;;;21.48;54.64
21290;BME280;10804;48.988;2.408;2022-09-09T02:38:46;100183.13;;;21.47;54.65
21290;BME280;10804;48.988;2.408;2022-09-09T02:41:24;100179.78;;;21.45;54.70
21290;BME280;10804;48.988;2.408;2022-09-09T02:43:56;100186.06;;;21.44;54.70
21290;BME280;10804;48.988;2.408;2022-09-09T02:46:37;100183.41;;;21.44;54.55
21290;BME280;10804;48.988;2.408;2022-09-09T02:49:17;100181.56;;;21.44;54.58
21290;BME280;10804;48.988;2.408;2022-09-09T02:51:52;100178.19;;;21.42;54.64
21290;BME280;10804;48.988;2.408;2022-09-09T02:54:27;100174.84;;;21.40;54.57
21290;BME280;10804;48.988;2.408;2022-09-09T02:57:02;100177.47;;;21.40;54.67
21290;BME280;10804;48.988;2.408;2022-09-09T02:59:37;100179.16;;;21.41;54.75
21290;BME280;10804;48.988;2.408;2022-09-09T03:02:06;100175.81;;;21.39;54.60
21290;BME280;10804;48.988;2.408;2022-09-09T03:04:35;100181.94;;;21.40;54.74
21290;BME280;10804;48.988;2.408;2022-09-09T03:07:02;100179.41;;;21.38;54.57
21290;BME280;10804;48.988;2.408;2022-09-09T03:09:30;100172.44;;;21.37;54.62
21290;BME280;10804;48.988;2.408;2022-09-09T03:11:58;100170.72;;;21.36;54.79
21290;BME280;10804;48.988;2.408;2022-09-09T03:14:27;100174.34;;;21.35;54.72
21290;BME280;10804;48.988;2.408;2022-09-09T03:16:57;100169.88;;;21.36;54.63
21290;BME280;10804;48.988;2.408;2022-09-09T03:19:30;100168.22;;;21.35;54.61
21290;BME280;10804;48.988;2.408;2022-09-09T03:21:57;100174.34;;;21.35;54.75
21290;BME280;10804;48.988;2.408;2022-09-09T03:24:29;100162.03;;;21.34;54.75
21290;BME280;10804;48.988;2.408;2022-09-09T03:26:56;100158.56;;;21.34;54.83
21290;BME280;10804;48.988;2.408;2022-09-09T03:29:23;100162.16;;;21.33;54.75
21290;BME280;10804;48.988;2.408;2022-09-09T03:31:58;100158.69;;;21.32;54.65
21290;BME280;10804;48.988;2.408;2022-09-09T03:34:26;100154.19;;;21.33;54.74
21290;BME280;10804;48.988;2.408;2022-09-09T03:36:53;100167.59;;;21.31;54.66
21290;BME280;10804;48.988;2.408;2022-09-09T03:39:21;100162.16;;;21.33;54.59
21290;BME280;10804;48.988;2.408;2022-09-09T03:41:49;100160.59;;;21.30;54.62
21290;BME280;10804;48.988;2.408;2022-09-09T03:44:17;100160.72;;;21.29;54.73
21290;BME280;10804;48.988;2.408;2022-09-09T03:46:46;100170.47;;;21.28;54.72
21290;BME280;10804;48.988;2.408;2022-09-09T03:49:15;100170.47;;;21.28;54.59
21290;BME280;10804;48.988;2.408;2022-09-09T03:51:43;100169.50;;;21.29;54.65
21290;BME280;10804;48.988;2.408;2022-09-09T03:54:13;100165.31;;;21.27;54.73
21290;BME280;10804;48.988;2.408;2022-09-09T03:56:41;100164.56;;;21.25;54.65
21290;BME280;10804;48.988;2.408;2022-09-09T03:59:10;100167.22;;;21.25;54.75
21290;BME280;10804;48.988;2.408;2022-09-09T04:01:37;100169.88;;;21.25;54.62
21290;BME280;10804;48.988;2.408;2022-09-09T04:04:08;100170.00;;;21.23;54.72
21290;BME280;10804;48.988;2.408;2022-09-09T04:06:37;100170.13;;;21.22;54.76
21290;BME280;10804;48.988;2.408;2022-09-09T04:09:05;100163.97;;;21.21;54.80
21290;BME280;10804;48.988;2.408;2022-09-09T04:11:33;100171.09;;;21.21;54.71
21290;BME280;10804;48.988;2.408;2022-09-09T04:14:00;100157.94;;;21.19;54.84
21290;BME280;10804;48.988;2.408;2022-09-09T04:16:30;100155.28;;;21.19;54.78
21290;BME280;10804;48.988;2.408;2022-09-09T04:18:58;100153.59;;;21.18;54.84
21290;BME280;10804;48.988;2.408;2022-09-09T04:21:26;100155.41;;;21.18;54.76
21290;BME280;10804;48.988;2.408;2022-09-09T04:23:55;100157.22;;;21.17;54.82
21290;BME280;10804;48.988;2.408;2022-09-09T04:26:23;100155.66;;;21.15;54.73
21290;BME280;10804;48.988;2.408;2022-09-09T04:28:50;100153.97;;;21.14;54.82
21290;BME280;10804;48.988;2.408;2022-09-09T04:31:20;100153.09;;;21.13;54.76
21290;BME280;10804;48.988;2.408;2022-09-09T04:33:51;100158.41;;;21.13;54.80
21290;BME280;10804;48.988;2.408;2022-09-09T04:36:19;100162.03;;;21.12;54.89
21290;BME280;10804;48.988;2.408;2022-09-09T04:38:48;100155.03;;;21.11;54.91
21290;BME280;10804;48.988;2.408;2022-09-09T04:41:18;100168.28;;;21.11;54.83
21290;BME280;10804;48.988;2.408;2022-09-09T04:43:49;100163.97;;;21.10;54.92
21290;BME280;10804;48.988;2.408;2022-09-09T04:46:21;100161.31;;;21.10;54.89
21290;BME280;10804;48.988;2.408;2022-09-09T04:48:49;100162.28;;;21.09;54.91
21290;BME280;10804;48.988;2.408;2022-09-09T04:51:17;100168.66;;;21.07;54.94
21290;BME280;10804;48.988;2.408;2022-09-09T04:53:46;100158.91;;;21.07;54.85
21290;BME280;10804;48.988;2.408;2022-09-09T04:56:18;100168.66;;;21.07;54.80
21290;BME280;10804;48.988;2.408;2022-09-09T04:59:05;100158.16;;;21.05;54.86
21290;BME280;10804;48.988;2.408;2022-09-09T05:01:42;100168.03;;;21.03;54.92
21290;BME280;10804;48.988;2.408;2022-09-09T05:04:10;100164.44;;;21.04;54.97
21290;BME280;10804;48.988;2.408;2022-09-09T05:06:38;100169.97;;;21.01;55.04
21290;BME280;10804;48.988;2.408;2022-09-09T05:09:06;100168.91;;;21.04;54.86
21290;BME280;10804;48.988;2.408;2022-09-09T05:11:35;100176.97;;;21.02;54.86
21290;BME280;10804;48.988;2.408;2022-09-09T05:14:26;100178.91;;;21.00;54.89
21290;BME280;10804;48.988;2.408;2022-09-09T05:16:54;100170.94;;;21.00;55.01
21290;BME280;10804;48.988;2.408;2022-09-09T05:19:23;100192.28;;;20.99;54.92
21290;BME280;10804;48.988;2.408;2022-09-09T05:21:52;100186.97;;;20.99;54.91
21290;BME280;10804;48.988;2.408;2022-09-09T05:24:25;100184.44;;;20.97;55.06
21290;BME280;10804;48.988;2.408;2022-09-09T05:26:57;100188.91;;;20.97;55.00
21290;BME280;10804;48.988;2.408;2022-09-09T05:29:27;100184.66;;;20.94;55.05
21290;BME280;10804;48.988;2.408;2022-09-09T05:31:56;100181.06;;;20.95;55.05
21290;BME280;10804;48.988;2.408;2022-09-09T05:34:24;100180.19;;;20.95;55.17
21290;BME280;10804;48.988;2.408;2022-09-09T05:36:53;100187.22;;;20.96;55.00
21290;BME280;10804;48.988;2.408;2022-09-09T05:39:22;100183.72;;;20.95;54.97
21290;BME280;10804;48.988;2.408;2022-09-09T05:41:49;100185.63;;;20.93;55.00
21290;BME280;10804;48.988;2.408;2022-09-09T05:44:18;100191.03;;;20.92;54.98
21290;BME280;10804;48.988;2.408;2022-09-09T05:46:46;100195.53;;;20.91;55.07
21290;BME280;10804;48.988;2.408;2022-09-09T05:49:14;100192.88;;;20.91;55.13
21290;BME280;10804;48.988;2.408;2022-09-09T05:51:43;100189.38;;;20.91;55.07
21290;BME280;10804;48.988;2.408;2022-09-09T05:54:12;100194.78;;;20.89;55.04
21290;BME280;10804;48.988;2.408;2022-09-09T05:56:43;100184.06;;;20.91;55.01
21290;BME280;10804;48.988;2.408;2022-09-09T05:59:10;100186.09;;;20.87;55.13
21290;BME280;10804;48.988;2.408;2022-09-09T06:01:40;100198.38;;;20.88;55.19
21290;BME280;10804;48.988;2.408;2022-09-09T06:04:14;100196.47;;;20.90;55.05
21290;BME280;10804;48.988;2.408;2022-09-09T06:06:42;100191.28;;;20.89;55.09
21290;BME280;10804;48.988;2.408;2022-09-09T06:09:16;100192.13;;;20.89;55.10
21290;BME280;10804;48.988;2.408;2022-09-09T06:11:43;100190.44;;;20.88;55.19
21290;BME280;10804;48.988;2.408;2022-09-09T06:14:13;100192.13;;;20.89;55.09
21290;BME280;10804;48.988;2.408;2022-09-09T06:16:44;100204.56;;;20.89;55.09
21290;BME280;10804;48.988;2.408;2022-09-09T06:19:17;100205.50;;;20.88;55.17
21290;BME280;10804;48.988;2.408;2022-09-09T06:21:45;100201.03;;;20.88;55.20
21290;BME280;10804;48.988;2.408;2022-09-09T06:24:14;100209.97;;;20.87;55.13
21290;BME280;10804;48.988;2.408;2022-09-09T06:26:44;100200.22;;;20.88;55.21
21290;BME280;10804;48.988;2.408;2022-09-09T06:29:16;100197.44;;;20.89;54.99
21290;BME280;10804;48.988;2.408;2022-09-09T06:31:46;100205.38;;;20.89;55.08
21290;BME280;10804;48.988;2.408;2022-09-09T06:34:20;100203.69;;;20.88;55.20
21290;BME280;10804;48.988;2.408;2022-09-09T06:36:51;100196.69;;;20.87;55.18
21290;BME280;10804;48.988;2.408;2022-09-09T06:39:19;100199.09;;;20.90;55.05
21290;BME280;10804;48.988;2.408;2022-09-09T06:41:46;100195.75;;;20.88;55.19
21290;BME280;10804;48.988;2.408;2022-09-09T06:44:52;100200.06;;;20.89;55.10
21290;BME280;10804;48.988;2.408;2022-09-09T06:47:44;100202.72;;;20.89;55.03
21290;BME280;10804;48.988;2.408;2022-09-09T06:50:11;100204.41;;;20.90;55.00
21290;BME280;10804;48.988;2.408;2022-09-09T06:52:39;100199.09;;;20.90;54.98
21290;BME280;10804;48.988;2.408;2022-09-09T06:55:08;100200.06;;;20.89;55.15
21290;BME280;10804;48.988;2.408;2022-09-09T06:57:36;100200.06;;;20.89;55.19
21290;BME280;10804;48.988;2.408;2022-09-09T07:00:13;100193.81;;;20.90;55.18
21290;BME280;10804;48.988;2.408;2022-09-09T07:02:40;100198.19;;;20.91;55.14
21290;BME280;10804;48.988;2.408;2022-09-09T07:05:10;100206.13;;;20.91;54.98
21290;BME280;10804;48.988;2.408;2022-09-09T07:07:39;100202.50;;;20.92;55.00
21290;BME280;10804;48.988;2.408;2022-09-09T07:10:08;100213.13;;;20.92;55.14
21290;BME280;10804;48.988;2.408;2022-09-09T07:12:37;100199.00;;;20.92;55.07
21290;BME280;10804;48.988;2.408;2022-09-09T07:15:06;100204.41;;;20.90;55.10
21290;BME280;10804;48.988;2.408;2022-09-09T07:17:33;100210.56;;;20.91;55.09
21290;BME280;10804;48.988;2.408;2022-09-09T07:20:01;100201.53;;;20.93;55.16
21290;BME280;10804;48.988;2.408;2022-09-09T07:22:31;100209.50;;;20.93;55.20
21290;BME280;10804;48.988;2.408;2022-09-09T07:24:59;100210.47;;;20.92;55.23
21290;BME280;10804;48.988;2.408;2022-09-09T07:27:28;100215.78;;;20.92;55.14
21290;BME280;10804;48.988;2.408;2022-09-09T07:29:56;100218.41;;;20.92;55.12
21290;BME280;10804;48.988;2.408;2022-09-09T07:32:24;100228.06;;;20.93;55.11
21290;BME280;10804;48.988;2.408;2022-09-09T07:34:53;100221.78;;;20.94;55.13
21290;BME280;10804;48.988;2.408;2022-09-09T07:37:21;100220.94;;;20.94;55.06
21290;BME280;10804;48.988;2.408;2022-09-09T07:39:50;100230.56;;;20.95;55.09
21290;BME280;10804;48.988;2.408;2022-09-09T07:42:19;100234.09;;;20.95;55.12
21290;BME280;10804;48.988;2.408;2022-09-09T07:44:46;100230.56;;;20.95;55.22
21290;BME280;10804;48.988;2.408;2022-09-09T07:47:15;100241.06;;;20.96;55.13
21290;BME280;10804;48.988;2.408;2022-09-09T07:49:46;100232.41;;;20.94;55.17
21290;BME280;10804;48.988;2.408;2022-09-09T07:52:19;100231.44;;;20.95;55.07
21290;BME280;10804;48.988;2.408;2022-09-09T07:54:52;100235.03;;;20.94;55.06
21290;BME280;10804;48.988;2.408;2022-09-09T07:57:20;100239.38;;;20.95;55.08
21290;BME280;10804;48.988;2.408;2022-09-09T07:59:47;100238.53;;;20.95;55.15
21290;BME280;10804;48.988;2.408;2022-09-09T08:02:15;100229.63;;;20.96;55.13
21290;BME280;10804;48.988;2.408;2022-09-09T08:04:42;100232.28;;;20.96;55.08
21290;BME280;10804;48.988;2.408;2022-09-09T08:07:10;100234.09;;;20.95;55.00
21290;BME280;10804;48.988;2.408;2022-09-09T08:09:44;100241.06;;;20.96;54.98
21290;BME280;10804;48.988;2.408;2022-09-09T08:12:20;100241.06;;;20.96;55.12
21290;BME280;10804;48.988;2.408;2022-09-09T08:14:48;100254.31;;;20.96;55.24
21290;BME280;10804;48.988;2.408;2022-09-09T08:17:17;100252.41;;;20.98;55.08
21290;BME280;10804;48.988;2.408;2022-09-09T08:19:45;100241.78;;;20.98;55.12
21290;BME280;10804;48.988;2.408;2022-09-09T08:22:17;100243.50;;;20.99;55.21
21290;BME280;10804;48.988;2.408;2022-09-09T08:24:45;100240.84;;;20.99;55.08
21290;BME280;10804;48.988;2.408;2022-09-09T08:27:13;100248.81;;;20.99;55.08
21290;BME280;10804;48.988;2.408;2022-09-09T08:29:42;100248.56;;;21.02;55.03
21290;BME280;10804;48.988;2.408;2022-09-09T08:32:09;100252.19;;;21.01;55.01
21290;BME280;10804;48.988;2.408;2022-09-09T08:34:38;100253.16;;;21.00;55.14
21290;BME280;10804;48.988;2.408;2022-09-09T08:37:09;100252.91;;;21.03;55.09
21290;BME280;10804;48.988;2.408;2022-09-09T08:39:39;100256.41;;;21.04;55.12
21290;BME280;10804;48.988;2.408;2022-09-09T08:42:24;100250.16;;;21.05;55.11
21290;BME280;10804;48.988;2.408;2022-09-09T08:45:03;100259.78;;;21.06;55.26
21290;BME280;10804;48.988;2.408;2022-09-09T08:47:45;100279.19;;;21.06;55.18
21290;BME280;10804;48.988;2.408;2022-09-09T08:50:21;100260.63;;;21.06;55.41
21290;BME280;10804;48.988;2.408;2022-09-09T08:52:57;100264.75;;;21.10;55.32
21290;BME280;10804;48.988;2.408;2022-09-09T08:55:37;100269.19;;;21.10;55.01
21290;BME280;10804;48.988;2.408;2022-09-09T08:58:11;100259.44;;;21.10;55.08
21290;BME280;10804;48.988;2.408;2022-09-09T09:00:47;100264.75;;;21.10;55.11
21290;BME280;10804;48.988;2.408;2022-09-09T09:03:23;100276.94;;;21.13;55.03
21290;BME280;10804;48.988;2.408;2022-09-09T09:06:01;100278.50;;;21.15;55.08
21290;BME280;10804;48.988;2.408;2022-09-09T09:08:36;100277.53;;;21.16;55.01
21290;BME280;10804;48.988;2.408;2022-09-09T09:11:07;100273.06;;;21.17;55.13
21290;BME280;10804;48.988;2.408;2022-09-09T09:13:40;100286.31;;;21.17;55.15
21290;BME280;10804;48.988;2.408;2022-09-09T09:16:22;100286.22;;;21.18;55.11
21290;BME280;10804;48.988;2.408;2022-09-09T09:18:51;100283.31;;;21.21;55.10
21290;BME280;10804;48.988;2.408;2022-09-09T09:21:35;100300.00;;;21.23;55.02
21290;BME280;10804;48.988;2.408;2022-09-09T09:24:07;100294.69;;;21.23;55.15
21290;BME280;10804;48.988;2.408;2022-09-09T09:26:43;100300.72;;;21.25;55.09
21290;BME280;10804;48.988;2.408;2022-09-09T09:29:14;100298.16;;;21.24;55.10
21290;BME280;10804;48.988;2.408;2022-09-09T09:31:46;100305.75;;;21.28;55.01
21290;BME280;10804;48.988;2.408;2022-09-09T09:34:15;100311.06;;;21.28;55.13
21290;BME280;10804;48.988;2.408;2022-09-09T09:36:46;100301.31;;;21.29;55.08
21290;BME280;10804;48.988;2.408;2022-09-09T09:39:24;100303.88;;;21.30;55.25
21290;BME280;10804;48.988;2.408;2022-09-09T09:41:52;100308.94;;;21.33;54.92
21290;BME280;10804;48.988;2.408;2022-09-09T09:44:25;100307.13;;;21.34;54.96
21290;BME280;10804;48.988;2.408;2022-09-09T09:47:07;100315.09;;;21.34;55.09
21290;BME280;10804;48.988;2.408;2022-09-09T09:49:35;100317.59;;;21.35;55.10
21290;BME280;10804;48.988;2.408;2022-09-09T09:52:03;100305.09;;;21.37;55.38
21290;BME280;10804;48.988;2.408;2022-09-09T09:54:33;100311.13;;;21.39;55.21
21290;BME280;10804;48.988;2.408;2022-09-09T09:57:09;100311.84;;;21.41;55.06
21290;BME280;10804;48.988;2.408;2022-09-09T09:59:37;100315.47;;;21.40;55.11
21290;BME280;10804;48.988;2.408;2022-09-09T10:02:17;100313.53;;;21.42;55.04
21290;BME280;10804;48.988;2.408;2022-09-09T10:04:48;100315.22;;;21.43;55.00
21290;BME280;10804;48.988;2.408;2022-09-09T10:07:19;100317.88;;;21.43;55.11
21290;BME280;10804;48.988;2.408;2022-09-09T10:09:51;100325.72;;;21.45;55.14
21290;BME280;10804;48.988;2.408;2022-09-09T10:12:30;100337.81;;;21.49;55.10
21290;BME280;10804;48.988;2.408;2022-09-09T10:15:05;100339.59;;;21.48;55.11
21290;BME280;10804;48.988;2.408;2022-09-09T10:17:40;100327.03;;;21.50;55.21
21290;BME280;10804;48.988;2.408;2022-09-09T10:20:18;100338.41;;;21.52;55.03
21290;BME280;10804;48.988;2.408;2022-09-09T10:22:52;100338.28;;;21.54;54.85
21290;BME280;10804;48.988;2.408;2022-09-09T10:28:28;100326.59;;;21.56;55.22
21290;BME280;10804;48.988;2.408;2022-09-09T10:31:09;100335.16;;;21.60;55.03
21290;BME280;10804;48.988;2.408;2022-09-09T10:33:49;100326.13;;;21.62;55.00
21290;BME280;10804;48.988;2.408;2022-09-09T10:36:20;100337.56;;;21.63;55.11
21290;BME280;10804;48.988;2.408;2022-09-09T10:38:52;100336.53;;;21.65;55.08
21290;BME280;10804;48.988;2.408;2022-09-09T10:41:26;100317.19;;;21.63;55.04
21290;BME280;10804;48.988;2.408;2022-09-09T10:44:16;100326.63;;;21.67;55.06
21290;BME280;10804;48.988;2.408;2022-09-09T10:46:58;100322.88;;;21.70;55.18
21290;BME280;10804;48.988;2.408;2022-09-09T10:49:52;100334.13;;;21.73;54.97
21290;BME280;10804;48.988;2.408;2022-09-09T10:52:29;100343.66;;;21.76;54.96
21290;BME280;10804;48.988;2.408;2022-09-09T10:55:01;100321.59;;;21.75;55.13
21290;BME280;10804;48.988;2.408;2022-09-09T10:57:34;100333.91;;;21.76;55.15
21290;BME280;10804;48.988;2.408;2022-09-09T11:00:05;100327.63;;;21.77;55.25
21290;BME280;10804;48.988;2.408;2022-09-09T11:02:34;100321.34;;;21.78;55.13
21290;BME280;10804;48.988;2.408;2022-09-09T11:05:08;100314.09;;;21.80;55.15
21290;BME280;10804;48.988;2.408;2022-09-09T11:07:40;100321.84;;;21.83;55.04
21290;BME280;10804;48.988;2.408;2022-09-09T11:10:18;100307.44;;;21.86;55.03
21290;BME280;10804;48.988;2.408;2022-09-09T11:12:52;100318.94;;;21.86;55.00
21290;BME280;10804;48.988;2.408;2022-09-09T11:15:26;100322.31;;;21.88;55.28
21290;BME280;10804;48.988;2.408;2022-09-09T11:17:58;100322.19;;;21.90;55.24
21290;BME280;10804;48.988;2.408;2022-09-09T11:20:29;100338.00;;;21.91;55.04
21290;BME280;10804;48.988;2.408;2022-09-09T11:23:00;100327.38;;;21.91;55.05
21290;BME280;10804;48.988;2.408;2022-09-09T11:25:32;100322.78;;;21.93;55.00
21290;BME280;10804;48.988;2.408;2022-09-09T11:28:15;100334.03;;;21.97;55.09
21290;BME280;10804;48.988;2.408;2022-09-09T11:30:54;100321.47;;;21.99;55.06
21290;BME280;10804;48.988;2.408;2022-09-09T11:33:48;100340.78;;;22.01;55.00
21290;BME280;10804;48.988;2.408;2022-09-09T11:36:43;100341.53;;;22.03;55.10
21290;BME280;10804;48.988;2.408;2022-09-09T11:42:18;100345.00;;;22.03;54.85
21290;BME280;10804;48.988;2.408;2022-09-09T11:44:46;100340.41;;;22.05;54.91
21290;BME280;10804;48.988;2.408;2022-09-09T11:47:22;100329.78;;;22.05;54.91
21290;BME280;10804;48.988;2.408;2022-09-09T11:49:50;100333.28;;;22.06;55.04
21290;BME280;10804;48.988;2.408;2022-09-09T11:52:25;100339.47;;;22.06;54.90
21290;BME280;10804;48.988;2.408;2022-09-09T11:55:09;100354.44;;;22.07;54.98
21290;BME280;10804;48.988;2.408;2022-09-09T11:57:38;100344.63;;;22.08;55.01
21290;BME280;10804;48.988;2.408;2022-09-09T12:00:30;100353.47;;;22.08;55.01
21290;BME280;10804;48.988;2.408;2022-09-09T12:02:59;100358.66;;;22.10;54.96
21290;BME280;10804;48.988;2.408;2022-09-09T12:05:35;100361.44;;;22.08;55.08
21290;BME280;10804;48.988;2.408;2022-09-09T12:08:06;100362.16;;;22.10;54.98
21290;BME280;10804;48.988;2.408;2022-09-09T12:10:39;100370.13;;;22.10;54.86
21290;BME280;10804;48.988;2.408;2022-09-09T12:13:08;100375.44;;;22.10;54.95
21290;BME280;10804;48.988;2.408;2022-09-09T12:15:47;100353.81;;;22.04;55.23
21290;BME280;10804;48.988;2.408;2022-09-09T12:18:21;100373.75;;;22.09;54.98
21290;BME280;10804;48.988;2.408;2022-09-09T12:20:55;100368.31;;;22.11;55.15
21290;BME280;10804;48.988;2.408;2022-09-09T12:23:42;100386.06;;;22.10;55.13
21290;BME280;10804;48.988;2.408;2022-09-09T12:26:23;100371.94;;;22.10;55.16
21290;BME280;10804;48.988;2.408;2022-09-09T12:29:01;100362.88;;;22.12;55.06
21290;BME280;10804;48.988;2.408;2022-09-09T12:31:36;100361.88;;;22.13;55.20
21290;BME280;10804;48.988;2.408;2022-09-09T12:34:13;100362.63;;;22.15;55.15
21290;BME280;10804;48.988;2.408;2022-09-09T12:36:43;100362.50;;;22.17;54.95
21290;BME280;10804;48.988;2.408;2022-09-09T12:39:27;100368.66;;;22.17;54.98
21290;BME280;10804;48.988;2.408;2022-09-09T12:41:57;100366.00;;;22.17;55.24
21290;BME280;10804;48.988;2.408;2022-09-09T12:44:25;100386.19;;;22.20;55.05
21290;BME280;10804;48.988;2.408;2022-09-09T12:46:54;100377.25;;;22.21;55.28
21290;BME280;10804;48.988;2.408;2022-09-09T12:49:30;100382.31;;;22.24;55.32
21290;BME280;10804;48.988;2.408;2022-09-09T12:52:02;100390.16;;;22.25;55.15
21290;BME280;10804;48.988;2.408;2022-09-09T12:54:33;100389.91;;;22.28;55.57
21290;BME280;10804;48.988;2.408;2022-09-09T12:57:02;100396.94;;;22.29;55.36
21290;BME280;10804;48.988;2.408;2022-09-09T12:59:36;100401.41;;;22.29;55.38
21290;BME280;10804;48.988;2.408;2022-09-09T13:02:16;100408.28;;;22.31;55.35
21290;BME280;10804;48.988;2.408;2022-09-09T13:04:44;100403.81;;;22.32;55.50
21290;BME280;10804;48.988;2.408;2022-09-09T13:07:13;100396.56;;;22.34;55.16
21290;BME280;10804;48.988;2.408;2022-09-09T13:09:44;100408.03;;;22.34;55.25
21290;BME280;10804;48.988;2.408;2022-09-09T13:12:15;100407.91;;;22.36;55.47
21290;BME280;10804;48.988;2.408;2022-09-09T13:14:45;100407.81;;;22.37;55.17
21290;BME280;10804;48.988;2.408;2022-09-09T13:17:19;100397.91;;;22.39;55.48
21290;BME280;10804;48.988;2.408;2022-09-09T13:19:47;100410.22;;;22.40;55.20
21290;BME280;10804;48.988;2.408;2022-09-09T13:22:21;100403.00;;;22.42;55.16
21290;BME280;10804;48.988;2.408;2022-09-09T13:25:04;100410.97;;;22.42;55.42
21290;BME280;10804;48.988;2.408;2022-09-09T13:27:33;100424.25;;;22.42;55.22